createdAt,value
2023-04-28T00:06:19.018Z,5.03
2023-04-28T00:08:54.868Z,4.95
2023-04-28T00:11:34.592Z,5.20
2023-04-28T00:14:07.497Z,5.25
2023-04-28T00:16:38.726Z,5.38
2023-04-28T00:19:41.878Z,5.25
2023-04-28T00:22:22.875Z,4.50
2023-04-28T00:24:54.290Z,5.00
2023-04-28T00:27:24.557Z,5.82
2023-04-28T00:29:51.888Z,5.57
2023-04-28T00:32:21.533Z,4.97
2023-04-28T00:34:54.532Z,5.32
2023-04-28T00:37:38.901Z,4.60
2023-04-28T00:40:24.748Z,5.20
2023-04-28T00:42:56.816Z,5.20
2023-04-28T00:45:28.624Z,5.10
2023-04-28T00:47:59.341Z,5.75
2023-04-28T00:50:32.606Z,5.10
2023-04-28T00:53:09.930Z,5.25
2023-04-28T00:55:38.772Z,4.93
2023-04-28T00:58:07.417Z,4.83
2023-04-28T01:00:35.805Z,5.70
2023-04-28T01:03:10.144Z,4.95
2023-04-28T01:05:43.370Z,4.75
2023-04-28T01:08:15.491Z,5.38
2023-04-28T01:10:46.354Z,5.15
2023-04-28T01:13:29.292Z,4.93
2023-04-28T01:16:02.668Z,5.05
2023-04-28T01:18:36.900Z,5.07
2023-04-28T01:21:07.656Z,5.22
2023-04-28T01:23:42.997Z,5.05
2023-04-28T01:26:25.889Z,4.63
2023-04-28T01:29:01.725Z,5.10
2023-04-28T01:31:40.035Z,4.80
2023-04-28T01:34:09.851Z,4.88
2023-04-28T01:36:49.285Z,4.70
2023-04-28T01:39:19.450Z,5.22
2023-04-28T01:41:48.165Z,4.93
2023-04-28T01:44:16.964Z,5.60
2023-04-28T01:46:47.735Z,4.78
2023-04-28T01:49:36.481Z,5.20
2023-04-28T01:52:06.424Z,5.20
2023-04-28T01:54:43.990Z,4.80
2023-04-28T01:57:15.532Z,5.10
2023-04-28T02:00:00.288Z,4.90
2023-04-28T02:02:37.784Z,5.18
2023-04-28T02:05:07.805Z,4.97
2023-04-28T02:07:42.684Z,5.20
2023-04-28T02:10:18.420Z,4.80
2023-04-28T02:12:56.559Z,4.95
2023-04-28T02:15:25.801Z,4.75
2023-04-28T02:20:53.456Z,5.20
2023-04-28T02:23:21.471Z,5.07
2023-04-28T02:25:48.613Z,4.75
2023-04-28T02:28:16.065Z,5.22
2023-04-28T02:30:43.124Z,5.10
2023-04-28T02:33:10.434Z,5.10
2023-04-28T02:35:43.720Z,5.15
2023-04-28T02:38:13.654Z,4.90
2023-04-28T02:40:43.454Z,5.45
2023-04-28T02:45:44.550Z,5.20
2023-04-28T02:48:22.000Z,5.30
2023-04-28T02:51:01.362Z,5.35
2023-04-28T02:53:34.009Z,5.22
2023-04-28T02:56:06.833Z,5.68
2023-04-28T02:58:51.002Z,5.40
2023-04-28T03:01:21.119Z,5.35
2023-04-28T03:03:51.010Z,5.90
2023-04-28T03:06:30.032Z,5.25
2023-04-28T03:09:02.253Z,5.30
2023-04-28T03:11:38.453Z,5.43
2023-04-28T03:14:24.797Z,5.63
2023-04-28T03:16:52.433Z,5.47
2023-04-28T03:19:24.020Z,5.55
2023-04-28T03:21:52.926Z,5.32
2023-04-28T03:24:19.995Z,5.53
2023-04-28T03:26:49.979Z,5.22
2023-04-28T03:31:50.140Z,5.38
2023-04-28T03:34:20.748Z,5.07
2023-04-28T03:36:48.184Z,5.63
2023-04-28T03:39:23.755Z,5.22
2023-04-28T03:41:52.474Z,5.88
2023-04-28T03:45:01.034Z,5.05
2023-04-28T03:47:31.219Z,5.55
2023-04-28T03:52:26.420Z,4.97
2023-04-28T03:57:26.997Z,5.18
2023-04-28T03:59:54.574Z,5.43
2023-04-28T04:02:22.314Z,5.80
2023-04-28T04:04:53.029Z,6.57
2023-04-28T04:07:21.685Z,5.43
2023-04-28T04:09:49.189Z,4.78
2023-04-28T04:12:19.561Z,5.50
2023-04-28T04:14:49.397Z,4.97
2023-04-28T04:17:16.917Z,5.30
2023-04-28T04:19:44.729Z,5.03
2023-04-28T04:22:12.716Z,5.07
2023-04-28T04:24:40.895Z,5.10
2023-04-28T04:27:08.107Z,5.25
2023-04-28T04:29:42.448Z,5.43
2023-04-28T04:32:26.139Z,5.43
2023-04-28T04:37:21.391Z,5.78
2023-04-28T04:39:56.194Z,5.30
2023-04-28T04:42:33.287Z,5.45
2023-04-28T04:45:06.671Z,5.35
2023-04-28T04:47:33.750Z,6.40
2023-04-28T04:50:05.126Z,5.85
2023-04-28T04:52:32.882Z,7.03
2023-04-28T04:55:04.260Z,6.22
2023-04-28T04:57:32.916Z,6.78
2023-04-28T05:00:23.811Z,5.83
2023-04-28T05:02:52.978Z,6.10
2023-04-28T05:05:22.141Z,5.82
2023-04-28T05:08:10.337Z,5.95
2023-04-28T05:10:37.879Z,6.00
2023-04-28T05:13:07.532Z,5.65
2023-04-28T05:15:35.099Z,5.85
2023-04-28T05:18:22.696Z,5.60
2023-04-28T05:20:50.428Z,6.32
2023-04-28T05:23:19.247Z,6.13
2023-04-28T05:25:46.610Z,6.15
2023-04-28T05:28:14.272Z,6.15
2023-04-28T05:30:45.354Z,6.03
2023-04-28T05:33:14.091Z,6.30
2023-04-28T05:35:43.187Z,6.43
2023-04-28T05:38:12.943Z,6.10
2023-04-28T05:40:42.765Z,6.72
2023-04-28T05:43:12.784Z,6.35
2023-04-28T05:45:40.851Z,6.38
2023-04-28T05:48:08.332Z,6.03
2023-04-28T05:50:39.161Z,6.38
2023-04-28T05:53:14.590Z,5.80
2023-04-28T05:55:42.048Z,6.43
2023-04-28T05:58:11.298Z,5.38
2023-04-28T06:00:41.068Z,5.35
2023-04-28T06:03:14.416Z,4.70
2023-04-28T06:05:48.996Z,4.70
2023-04-28T06:08:19.202Z,5.13
2023-04-28T06:10:46.512Z,5.38
2023-04-28T06:13:19.478Z,5.20
2023-04-28T06:15:47.048Z,4.72
2023-04-28T06:18:16.171Z,4.70
2023-04-28T06:20:43.382Z,4.95
2023-04-28T06:23:13.689Z,4.28
2023-04-28T06:25:45.165Z,4.28
2023-04-28T06:28:13.537Z,4.80
2023-04-28T06:30:41.373Z,4.82
2023-04-28T06:33:09.580Z,5.05
2023-04-28T06:35:39.185Z,5.07
2023-04-28T06:38:11.485Z,5.05
2023-04-28T06:40:41.623Z,5.10
2023-04-28T06:43:09.227Z,5.22
2023-04-28T06:45:55.635Z,4.80
2023-04-28T06:48:26.591Z,5.25
2023-04-28T06:50:53.847Z,5.75
2023-04-28T06:53:26.829Z,5.93
2023-04-28T06:56:00.363Z,5.63
2023-04-28T06:58:33.828Z,5.90
2023-04-28T07:01:01.195Z,5.38
2023-04-28T07:03:28.684Z,5.50
2023-04-28T07:05:56.202Z,4.88
2023-04-28T07:08:23.277Z,4.65
2023-04-28T07:10:53.750Z,4.05
2023-04-28T07:13:23.277Z,4.97
2023-04-28T07:15:51.096Z,4.40
2023-04-28T07:18:18.193Z,4.80
2023-04-28T07:20:45.159Z,4.63
2023-04-28T07:23:15.051Z,4.10
2023-04-28T07:25:42.607Z,4.25
2023-04-28T07:28:10.280Z,4.82
2023-04-28T07:30:37.552Z,4.95
2023-04-28T07:33:04.573Z,5.32
2023-04-28T07:35:31.995Z,5.30
2023-04-28T07:37:59.264Z,4.88
2023-04-28T07:40:26.498Z,4.68
2023-04-28T07:42:55.580Z,4.43
2023-04-28T07:45:22.631Z,4.80
2023-04-28T07:47:49.865Z,4.50
2023-04-28T07:50:18.162Z,4.55
2023-04-28T07:52:45.712Z,4.90
2023-04-28T07:55:16.150Z,4.72
2023-04-28T07:57:46.874Z,4.78
2023-04-28T08:00:15.094Z,4.40
2023-04-28T08:02:42.491Z,4.60
2023-04-28T08:05:13.396Z,4.47
2023-04-28T08:07:43.850Z,4.05
2023-04-28T08:10:14.010Z,5.25
2023-04-28T08:12:47.015Z,4.80
2023-04-28T08:15:16.708Z,4.82
2023-04-28T08:17:51.241Z,4.70
2023-04-28T08:20:24.673Z,4.63
2023-04-28T08:22:52.424Z,4.85
2023-04-28T08:25:19.742Z,4.63
2023-04-28T08:27:47.511Z,4.78
2023-04-28T08:30:27.348Z,4.50
2023-04-28T08:32:57.067Z,4.65
2023-04-28T08:35:29.483Z,4.88
2023-04-28T08:38:04.972Z,5.22
2023-04-28T08:40:39.856Z,5.40
2023-04-28T08:43:10.326Z,5.47
2023-04-28T08:45:48.643Z,5.60
2023-04-28T08:48:27.237Z,4.93
2023-04-28T08:50:55.298Z,4.18
2023-04-28T08:53:28.241Z,4.85
2023-04-28T08:55:59.644Z,4.88
2023-04-28T08:58:32.896Z,4.50
2023-04-28T09:01:03.285Z,5.15
2023-04-28T09:03:37.260Z,5.07
2023-04-28T09:06:05.315Z,5.18
2023-04-28T09:08:34.293Z,4.93
2023-04-28T09:11:18.605Z,5.00
2023-04-28T09:13:48.013Z,5.20
2023-04-28T09:16:18.967Z,5.35
2023-04-28T09:19:06.080Z,5.38
2023-04-28T09:21:39.714Z,6.85
2023-04-28T09:24:09.806Z,6.00
2023-04-28T09:26:55.349Z,6.50
2023-04-28T09:29:26.702Z,6.25
2023-04-28T09:32:19.769Z,6.60
2023-04-28T09:34:59.981Z,5.95
2023-04-28T09:37:31.188Z,5.78
2023-04-28T09:40:13.709Z,6.45
2023-04-28T09:42:47.446Z,5.90
2023-04-28T09:45:17.660Z,4.97
2023-04-28T09:47:56.456Z,5.10
2023-04-28T09:50:28.323Z,5.07
2023-04-28T09:52:59.818Z,4.75
2023-04-28T09:55:34.720Z,4.90
2023-04-28T09:58:11.088Z,4.85
2023-04-28T10:00:41.038Z,4.40
2023-04-28T10:05:47.121Z,5.10
2023-04-28T10:08:18.524Z,4.93
2023-04-28T10:10:49.270Z,4.93
2023-04-28T10:13:23.473Z,4.72
2023-04-28T10:16:04.224Z,4.07
2023-04-28T10:18:43.732Z,4.30
2023-04-28T10:21:17.123Z,4.22
2023-04-28T10:24:06.149Z,4.57
2023-04-28T10:27:12.538Z,4.10
2023-04-28T10:29:44.099Z,3.90
2023-04-28T10:32:41.142Z,3.97
2023-04-28T10:35:31.336Z,4.03
2023-04-28T10:38:35.816Z,3.85
2023-04-28T10:41:33.533Z,3.70
2023-04-28T10:44:01.662Z,2.90
2023-04-28T10:47:12.659Z,2.53
2023-04-28T10:49:59.819Z,2.00
2023-04-28T10:52:40.009Z,1.70
2023-04-28T10:55:40.413Z,1.90
2023-04-28T10:58:17.437Z,1.65
2023-04-28T11:00:48.910Z,1.20
2023-04-28T11:03:47.850Z,1.25
2023-04-28T11:06:26.817Z,1.25
2023-04-28T11:09:04.689Z,1.20
2023-04-28T11:11:45.335Z,1.20
2023-04-28T11:14:19.309Z,1.17
2023-04-28T11:17:05.943Z,1.10
2023-04-28T11:19:51.311Z,1.10
2023-04-28T11:22:31.149Z,0.98
2023-04-28T11:25:15.835Z,1.10
2023-04-28T11:27:43.098Z,1.40
2023-04-28T11:30:23.293Z,1.10
2023-04-28T11:32:51.919Z,1.08
2023-04-28T11:35:19.155Z,1.00
2023-04-28T11:37:49.346Z,1.50
2023-04-28T11:40:25.751Z,2.45
2023-04-28T11:42:58.685Z,1.25
2023-04-28T11:45:27.748Z,1.08
2023-04-28T11:47:55.197Z,1.10
2023-04-28T11:50:42.119Z,1.40
2023-04-28T11:53:21.182Z,2.05
2023-04-28T11:56:10.587Z,2.13
2023-04-28T11:58:40.456Z,1.00
2023-04-28T12:01:12.340Z,1.10
2023-04-28T12:03:44.730Z,1.30
2023-04-28T12:06:12.777Z,0.90
2023-04-28T12:08:54.220Z,1.00
2023-04-28T12:11:25.936Z,1.13
2023-04-28T12:14:14.818Z,1.35
2023-04-28T12:16:45.165Z,1.35
2023-04-28T12:19:15.649Z,1.40
2023-04-28T12:21:43.802Z,1.50
2023-04-28T12:24:22.060Z,1.13
2023-04-28T12:26:57.062Z,1.10
2023-04-28T12:29:41.538Z,1.33
2023-04-28T12:32:11.095Z,1.60
2023-04-28T12:34:40.271Z,1.48
2023-04-28T12:37:11.682Z,1.30
2023-04-28T12:39:54.262Z,1.33
2023-04-28T12:42:47.662Z,1.33
2023-04-28T12:45:21.868Z,1.42
2023-04-28T12:48:02.633Z,1.40
2023-04-28T12:50:41.168Z,1.13
2023-04-28T12:53:29.780Z,1.17
2023-04-28T12:59:09.176Z,1.25
2023-04-28T13:01:48.347Z,1.20
2023-04-28T13:04:34.863Z,1.20
2023-04-28T13:07:14.849Z,1.10
2023-04-28T13:09:54.545Z,1.23
2023-04-28T13:12:30.702Z,1.13
2023-04-28T13:15:01.236Z,1.02
2023-04-28T13:20:39.762Z,1.20
2023-04-28T13:23:19.978Z,0.98
2023-04-28T13:25:55.788Z,1.30
2023-04-28T13:28:30.578Z,1.20
2023-04-28T13:31:01.600Z,1.20
2023-04-28T13:33:36.421Z,1.60
2023-04-28T13:36:17.818Z,1.02
2023-04-28T13:38:55.223Z,1.20
2023-04-28T13:41:35.377Z,2.40
2023-04-28T13:44:16.074Z,1.50
2023-04-28T13:46:44.996Z,1.20
2023-04-28T13:49:15.741Z,1.20
2023-04-28T13:54:35.138Z,1.20
2023-04-28T13:57:06.031Z,1.35
2023-04-28T13:59:46.706Z,1.38
2023-04-28T14:02:15.073Z,1.10
2023-04-28T14:04:52.086Z,1.17
2023-04-28T14:07:20.164Z,1.02
2023-04-28T14:09:50.887Z,0.98
2023-04-28T14:12:22.168Z,0.90
2023-04-28T14:14:54.109Z,1.38
2023-04-28T14:17:29.302Z,1.20
2023-04-28T14:20:00.296Z,0.90
2023-04-28T14:22:28.468Z,1.20
2023-04-28T14:24:56.495Z,0.98
2023-04-28T14:27:29.213Z,1.08
2023-04-28T14:30:00.339Z,1.20
2023-04-28T14:32:40.171Z,0.93
2023-04-28T14:35:11.737Z,0.80
2023-04-28T14:37:44.918Z,1.00
2023-04-28T14:40:15.619Z,1.25
2023-04-28T14:42:51.783Z,1.35
2023-04-28T14:45:28.023Z,1.20
2023-04-28T14:52:37.018Z,1.00
2023-04-28T14:55:10.959Z,1.20
2023-04-28T14:57:42.719Z,1.00
2023-04-28T15:00:18.011Z,1.13
2023-04-28T15:02:49.241Z,1.20
2023-04-28T15:05:25.359Z,1.30
2023-04-28T15:08:08.006Z,0.95
2023-04-28T15:10:57.158Z,1.30
2023-04-28T15:13:31.926Z,1.40
2023-04-28T15:16:03.739Z,1.30
2023-04-28T15:18:40.808Z,1.05
2023-04-28T15:21:13.621Z,1.30
2023-04-28T15:23:47.313Z,1.60
2023-04-28T15:26:19.868Z,1.30
2023-04-28T15:28:50.790Z,1.20
2023-04-28T15:31:18.169Z,1.27
2023-04-28T15:33:52.960Z,1.15
2023-04-28T15:36:29.458Z,1.30
2023-04-28T15:39:03.482Z,1.20
2023-04-28T15:41:41.526Z,1.20
2023-04-28T15:44:12.476Z,1.30
2023-04-28T15:46:40.789Z,1.35
2023-04-28T15:49:21.669Z,1.40
2023-04-28T15:51:56.836Z,1.45
2023-04-28T15:55:05.096Z,1.48
2023-04-28T15:57:37.302Z,1.30
2023-04-28T16:00:10.770Z,1.52
2023-04-28T16:02:50.325Z,1.13
2023-04-28T16:05:29.197Z,1.10
2023-04-28T16:11:45.318Z,1.30
2023-04-28T16:14:24.778Z,1.30
2023-04-28T16:17:24.014Z,1.20
2023-04-28T16:20:28.541Z,1.70
2023-04-28T16:23:06.684Z,1.73
2023-04-28T16:25:51.936Z,1.60
2023-04-28T16:28:29.469Z,2.70
2023-04-28T16:31:54.596Z,2.85
2023-04-28T16:34:49.431Z,2.20
2023-04-28T16:37:45.085Z,1.75
2023-04-28T16:40:27.068Z,1.63
2023-04-28T16:43:03.658Z,1.33
2023-04-28T16:45:34.855Z,1.70
2023-04-28T16:48:22.780Z,1.80
2023-04-28T16:50:58.872Z,1.70
2023-04-28T16:53:54.247Z,1.83
2023-04-28T16:56:37.385Z,1.88
2023-04-28T16:59:48.464Z,1.88
2023-04-28T17:02:25.250Z,1.45
2023-04-28T17:05:06.565Z,1.27
2023-04-28T17:07:43.859Z,1.30
2023-04-28T17:10:16.547Z,1.40
2023-04-28T17:13:11.450Z,1.30
2023-04-28T17:15:41.865Z,1.70
2023-04-28T17:18:14.521Z,1.98
2023-04-28T17:20:49.653Z,2.33
2023-04-28T17:23:41.814Z,2.40
2023-04-28T17:32:20.550Z,2.17
2023-04-28T17:35:09.365Z,2.08
2023-04-28T17:44:38.082Z,2.35
2023-04-28T17:47:21.051Z,2.45
2023-04-28T17:50:44.060Z,2.33
2023-04-28T17:54:12.769Z,2.80
2023-04-28T18:00:42.867Z,2.40
2023-04-28T18:11:52.107Z,3.40
2023-04-28T18:19:15.829Z,3.42
2023-04-28T18:38:09.284Z,3.95
2023-04-28T18:50:39.593Z,4.05
2023-04-28T19:02:33.241Z,4.63
2023-04-28T19:19:22.018Z,3.50
2023-04-28T19:22:04.068Z,3.83
2023-04-28T19:27:25.096Z,3.75
2023-04-28T19:29:58.786Z,3.28
2023-04-28T19:35:41.383Z,2.85
2023-04-28T19:38:14.604Z,3.15
2023-04-28T19:43:54.269Z,2.90
2023-04-28T19:51:00.943Z,4.45
2023-04-28T19:53:42.591Z,6.50
2023-04-28T19:56:24.768Z,6.28
2023-04-28T19:59:16.542Z,5.28
2023-04-28T20:02:01.930Z,4.45
2023-04-28T20:41:41.329Z,4.07
2023-04-28T20:44:50.694Z,3.88
2023-04-28T20:54:40.158Z,3.50
2023-04-28T21:00:07.685Z,4.05
2023-04-28T21:03:04.733Z,3.50
2023-04-28T21:05:46.795Z,3.92
2023-04-28T21:08:30.265Z,3.75
2023-04-28T21:11:02.441Z,4.22
2023-04-28T21:47:18.609Z,3.47
2023-04-28T21:54:01.069Z,3.47
2023-04-28T22:00:44.654Z,3.58
2023-04-28T22:04:16.464Z,3.50
2023-04-28T22:11:23.740Z,3.25
2023-04-28T22:18:45.321Z,4.03
2023-04-28T22:29:09.044Z,3.40
2023-04-28T22:38:49.215Z,3.13
2023-04-28T22:44:34.406Z,3.97
2023-04-28T22:51:24.291Z,4.05
2023-04-28T22:54:42.346Z,3.65
2023-04-28T22:57:20.024Z,3.60
2023-04-28T23:03:42.101Z,4.18
2023-04-28T23:06:24.749Z,4.18
2023-04-28T23:09:35.110Z,4.35
2023-04-28T23:19:42.315Z,3.88
2023-04-28T23:29:23.294Z,3.80
2023-04-28T23:32:55.580Z,3.70
2023-04-28T23:36:35.497Z,3.20
2023-04-28T23:39:15.367Z,3.33
2023-04-28T23:41:56.166Z,3.78
2023-04-28T23:44:48.201Z,3.00
2023-04-28T23:48:25.172Z,3.30
2023-04-28T23:51:02.581Z,3.38
2023-04-28T23:53:51.063Z,3.97
2023-04-28T23:56:42.950Z,4.03
